METAR Data
IDs: Format: Raw Decoded Include TAF

Data at: 0504 UTC 18 Oct 2018

METAR for:KLEX (Lexington/Blue Grass, KY, US)
Text:KLEX 180454Z 36006KT 10SM CLR 07/02 A3044 RMK AO2 SLP309 T00720017 401780039
Temperature: 7.2°C ( 45°F)
Dewpoint: 1.7°C ( 35°F) [RH = 68%]
Pressure (altimeter):30.44 inches Hg (1030.9 mb) [Sea level pressure: 1030.9 mb]
Winds:from the N (360 degrees) at 7 MPH (6 knots; 3.1 m/s)
Visibility:10 or more sm (16+ km)
Ceiling:at least 12,000 feet AGL
Clouds:sky clear below 12,000 feet AGL